Othello, WA

4:20 AM PDT en Octubre 20, 2014 (GMT -0700)
N Royal Lake | Change Station
CLOSE
Current Station
Estación meteorológica personal
Location: Othello, WA
Altura: 883 ft
Estaciones meteorológicas cercanas

Alt 883 ft 46.88 °N, 119.37 °W | Updated 12 minutes ago

Despejado
Despejado
48.9 ° F
Sensación térmica 49 ° F
N
1.7
Viento Variable Viento desde NO

Hoy
Alta -- | Baja -- ° F
--% Posibilidad de precipitaciones
Ayer
Alta -- | Baja -- ° F
Precip. -- pul
7:22 AM 6:01 PM
Creciente menguante, 11% visible
Presión 29.72 pul
Visibilidad 5.0 Millas
Nubes Despejado
Vientos helados 49 ° F
Punto de rocío 48 ° F
Humedad 96%
Precipitaciones 0.00 pul
Espesor de la nieve No disponible.
UV 0 de una escala de 12
Polen .40 de una escala de 12
Calidad del aire No disponible.
Flu Activity Sporadic
METAR KMWH 201052Z AUTO 35004KT 5SM BR CLR 07/06 A2972 RMK AO2 SLP062 T00670056

More Conditions Fewer Conditions

Presión 29.72 pul
Visibilidad 5.0 Millas
Nubes Despejado
Vientos helados 49 ° F
Punto de rocío 48 ° F
Humedad 96%
Precipitaciones 0.00 pul
Espesor de la nieve No disponible.
UV 0 de una escala de 12
Polen .40 de una escala de 12
Calidad del aire No disponible.
Flu Activity Sporadic
METAR KMWH 201052Z AUTO 35004KT 5SM BR CLR 07/06 A2972 RMK AO2 SLP062 T00670056

More Conditions Fewer Conditions

10-Day Weather Forecast

Almanac

Astronomía

Oct. 20, 2014 Salida Puesta
Hora real 7:22 AM PDT 6:01 PM PDT
Crepúsculo civil 6:51 AM PDT 6:32 PM PDT
Crepúsculo náutico 6:16 AM PDT 7:07 PM PDT
Crepúsculo astronómico 5:41 AM PDT 7:42 PM PDT
Luna 4:04 AM PDT 4:36 PM PDT
Horas de luz 11h 40m
Horas de luz
10h 38m
Creciente menguante, 11% of the Moon is Illuminated
Hoy
Creciente menguante
Oct 23
Nueva
Oct 30
Cuarto creciente
Nov 6
Luna llena
Nov 14
Cuarto menguante

Extremos de hoy

Máximos del estado Bajos del estado

Community

WunderPhotos

Upload Photos

1,763,338 ¡fotos cargadas!

Nearby

Grosos de nieve

Estación Profundido Altura
Trough 0 in 5300 ft
Grouse Camp 0 in 5380 ft
Lost Horse 0 in 5000 ft
Touchet 0 in 5530 ft
Sasse Ridge 0 in 4200 ft

Actividad de terremotos

Ciudad Distance Mag. Tiempo y dato
No hay informes recientes de la actividad sísmica.
Magnitud mínima muestra es 2,5.

Temperaturas de aguas costeras

Lugar Temperatura
Sin partes meteorológicos de las estaciones

Estaciones meteorológicas cercanas